Nestor — V2FB3 — position and weather

sailwx.info

Track history (hours):
 
Tides and Currents Weather Stations Pressure Air Temp Water Temp Dewpoint Dewpoint Depression Visibility Wind Speed Wind Dir Waves Ship Positions

Nestor

Last reported at 2017-Dec-02 04:28 UTC. Time now 2017-Dec-13 01:31 UTC.
Position N 37°41' W 000°28'.
Warning: this ship's position is 10 days out of date.

Length 88 m; draft 5.6 m.

Type: Cargo ship. MMSI: 305620000.

Date/timePositionNaut miles runAvg speedWind from/ knotsBaromVisibWave heightAir tempDewpointWater temp
2017-Dec-02 04:28N 37°41' W 000°28'3 7.0
2017-Dec-02 04:00N 37°38' W 000°29'4 7.3
2017-Dec-02 03:30N 37°35' W 000°30'11 7.9
2017-Dec-02 02:06N 37°27' W 000°40'4 7.9
2017-Dec-02 01:34N 37°24' W 000°44'1 8.0
2017-Dec-02 01:30N 37°24' W 000°44'4 7.9
2017-Dec-02 01:00N 37°21' W 000°48'227 8.1
2017-Nov-30 20:58N 35°55' W 005°10'5 9.8
2017-Nov-30 20:30N 35°55' W 005°16'3 6.3
2017-Nov-30 20:00N 35°54' W 005°19'0 0.2
2017-Nov-30 19:30N 35°54' W 005°19'0 0.0
2017-Nov-30 19:00N 35°54' W 005°19'0 0.0
2017-Nov-30 18:30N 35°54' W 005°19'0 0.0
2017-Nov-30 18:00N 35°54' W 005°19'0 0.0
2017-Nov-30 17:30N 35°54' W 005°19'0 0.0
2017-Nov-30 17:00N 35°54' W 005°19'0 0.0
2017-Nov-30 16:30N 35°54' W 005°19'1 1.7
2017-Nov-30 16:01N 35°54' W 005°19'1 1.4
2017-Nov-30 15:31N 35°55' W 005°19'1 1.8
2017-Nov-30 15:00N 35°56' W 005°19'1 2.2
2017-Nov-30 14:30N 35°56' W 005°21'294 7.6
2017-Nov-28 23:57N 39°02' W 010°07'  
2017-Nov-25 14:26N 49°52' W 003°23'4 8.7
2017-Nov-25 14:01N 49°53' W 003°17'4 8.4
2017-Nov-25 13:31N 49°55' W 003°12'4 8.1
2017-Nov-25 13:00N 49°57' W 003°06'4 7.9
2017-Nov-25 12:30N 49°59' W 003°01'4 7.4
2017-Nov-25 12:00N 50°01' W 002°56'4 6.9
2017-Nov-25 11:27N 50°02' W 002°50'3 6.9
2017-Nov-25 11:01N 50°03' W 002°45'14 7.2
2017-Nov-25 08:59N 50°06' W 002°24'4 7.8
2017-Nov-25 08:30N 50°08' W 002°18'4 8.2
2017-Nov-25 08:00N 50°09' W 002°12'5 9.2
2017-Nov-25 07:28N 50°10' W 002°04'67 9.7
2017-Nov-25 00:34N 50°28' W 000°23'1 7.9
2017-Nov-25 00:30N 50°28' W 000°22'4 7.7
2017-Nov-25 00:00N 50°29' W 000°16'4 8.0
2017-Nov-24 23:30N 50°30' W 000°10'4 8.2
2017-Nov-24 23:00N 50°32' W 000°04'4 8.5
2017-Nov-24 22:30N 50°33' E 000°02'4 8.8
2017-Nov-24 22:00N 50°34' E 000°09'5 9.3
2017-Nov-24 21:30N 50°35' E 000°16'5 9.8
2017-Nov-24 21:00N 50°36' E 000°23'510.3
2017-Nov-24 20:30N 50°38' E 000°31'510.4
2017-Nov-24 20:00N 50°41' E 000°38'510.5
2017-Nov-24 19:30N 50°44' E 000°45'810.3
2017-Nov-24 18:44N 50°48' E 000°56'210.1
2017-Nov-24 18:30N 50°49' E 000°59'7 9.7
2017-Nov-24 17:46N 50°54' E 001°08'3 9.4
2017-Nov-24 17:29N 50°55' E 001°11'4 9.0
2017-Nov-24 16:59N 50°58' E 001°16'4 8.3
2017-Nov-24 16:30N 51°01' E 001°21'4 7.7
2017-Nov-24 16:00N 51°03' E 001°26'4 7.5
2017-Nov-24 15:30N 51°06' E 001°30'4 7.3
2017-Nov-24 15:00N 51°08' E 001°35'4 7.6
2017-Nov-24 14:30N 51°11' E 001°39'4 8.0
2017-Nov-24 14:00N 51°13' E 001°44'4 8.8
2017-Nov-24 13:30N 51°17' E 001°47'5 9.6
2017-Nov-24 13:00N 51°22' E 001°50'510.5
2017-Nov-24 12:30N 51°26' E 001°54'510.7
2017-Nov-24 12:00N 51°30' E 001°60'  
Track history (hours):
 
Tides and Currents Weather Stations Pressure Air Temp Water Temp Dewpoint Dewpoint Depression Visibility Wind Speed Wind Dir Waves Ship Positions

Nestor

Last reported at 2017-Dec-02 04:28 UTC. Time now 2017-Dec-13 01:31 UTC.
Position N 37°41' W 000°28'.
Warning: this ship's position is 10 days out of date.

Length 88 m; draft 5.6 m.

Type: Cargo ship. MMSI: 305620000.

Date/timePositionNaut miles runAvg speedWind from/ knotsBaromVisibWave heightAir tempDewpointWater temp
2017-Dec-02 04:28N 37°41' W 000°28'3 7.0
2017-Dec-02 04:00N 37°38' W 000°29'4 7.3
2017-Dec-02 03:30N 37°35' W 000°30'11 7.9
2017-Dec-02 02:06N 37°27' W 000°40'4 7.9
2017-Dec-02 01:34N 37°24' W 000°44'1 8.0
2017-Dec-02 01:30N 37°24' W 000°44'4 7.9
2017-Dec-02 01:00N 37°21' W 000°48'227 8.1
2017-Nov-30 20:58N 35°55' W 005°10'5 9.8
2017-Nov-30 20:30N 35°55' W 005°16'3 6.3
2017-Nov-30 20:00N 35°54' W 005°19'0 0.2
2017-Nov-30 19:30N 35°54' W 005°19'0 0.0
2017-Nov-30 19:00N 35°54' W 005°19'0 0.0
2017-Nov-30 18:30N 35°54' W 005°19'0 0.0
2017-Nov-30 18:00N 35°54' W 005°19'0 0.0
2017-Nov-30 17:30N 35°54' W 005°19'0 0.0
2017-Nov-30 17:00N 35°54' W 005°19'0 0.0
2017-Nov-30 16:30N 35°54' W 005°19'1 1.7
2017-Nov-30 16:01N 35°54' W 005°19'1 1.4
2017-Nov-30 15:31N 35°55' W 005°19'1 1.8
2017-Nov-30 15:00N 35°56' W 005°19'1 2.2
2017-Nov-30 14:30N 35°56' W 005°21'294 7.6
2017-Nov-28 23:57N 39°02' W 010°07'  
2017-Nov-25 14:26N 49°52' W 003°23'4 8.7
2017-Nov-25 14:01N 49°53' W 003°17'4 8.4
2017-Nov-25 13:31N 49°55' W 003°12'4 8.1
2017-Nov-25 13:00N 49°57' W 003°06'4 7.9
2017-Nov-25 12:30N 49°59' W 003°01'4 7.4
2017-Nov-25 12:00N 50°01' W 002°56'4 6.9
2017-Nov-25 11:27N 50°02' W 002°50'3 6.9
2017-Nov-25 11:01N 50°03' W 002°45'14 7.2
2017-Nov-25 08:59N 50°06' W 002°24'4 7.8
2017-Nov-25 08:30N 50°08' W 002°18'4 8.2
2017-Nov-25 08:00N 50°09' W 002°12'5 9.2
2017-Nov-25 07:28N 50°10' W 002°04'67 9.7
2017-Nov-25 00:34N 50°28' W 000°23'1 7.9
2017-Nov-25 00:30N 50°28' W 000°22'4 7.7
2017-Nov-25 00:00N 50°29' W 000°16'4 8.0
2017-Nov-24 23:30N 50°30' W 000°10'4 8.2
2017-Nov-24 23:00N 50°32' W 000°04'4 8.5
2017-Nov-24 22:30N 50°33' E 000°02'4 8.8
2017-Nov-24 22:00N 50°34' E 000°09'5 9.3
2017-Nov-24 21:30N 50°35' E 000°16'5 9.8
2017-Nov-24 21:00N 50°36' E 000°23'510.3
2017-Nov-24 20:30N 50°38' E 000°31'510.4
2017-Nov-24 20:00N 50°41' E 000°38'510.5
2017-Nov-24 19:30N 50°44' E 000°45'810.3
2017-Nov-24 18:44N 50°48' E 000°56'210.1
2017-Nov-24 18:30N 50°49' E 000°59'7 9.7
2017-Nov-24 17:46N 50°54' E 001°08'3 9.4
2017-Nov-24 17:29N 50°55' E 001°11'4 9.0
2017-Nov-24 16:59N 50°58' E 001°16'4 8.3
2017-Nov-24 16:30N 51°01' E 001°21'4 7.7
2017-Nov-24 16:00N 51°03' E 001°26'4 7.5
2017-Nov-24 15:30N 51°06' E 001°30'4 7.3
2017-Nov-24 15:00N 51°08' E 001°35'4 7.6
2017-Nov-24 14:30N 51°11' E 001°39'4 8.0
2017-Nov-24 14:00N 51°13' E 001°44'4 8.8
2017-Nov-24 13:30N 51°17' E 001°47'5 9.6
2017-Nov-24 13:00N 51°22' E 001°50'510.5
2017-Nov-24 12:30N 51°26' E 001°54'510.7
2017-Nov-24 12:00N 51°30' E 001°60'  

Dump ship's entire track history